sensor_id;sensor_type;location;lat;lon;timestamp;P1;durP1;ratioP1;P2;durP2;ratioP2
43809;SDS011;29440;48.208;11.162;2022-09-09T00:06:43;2.58;;;0.82;;
43809;SDS011;29440;48.208;11.162;2022-09-09T00:09:16;4.70;;;0.80;;
43809;SDS011;29440;48.208;11.162;2022-09-09T00:15:12;2.65;;;0.90;;
43809;SDS011;29440;48.208;11.162;2022-09-09T00:20:35;1.75;;;0.85;;
43809;SDS011;29440;48.208;11.162;2022-09-09T00:23:32;4.50;;;0.90;;
43809;SDS011;29440;48.208;11.162;2022-09-09T00:31:31;2.10;;;0.77;;
43809;SDS011;29440;48.208;11.162;2022-09-09T00:33:59;1.15;;;0.70;;
43809;SDS011;29440;48.208;11.162;2022-09-09T00:36:34;2.50;;;0.80;;
43809;SDS011;29440;48.208;11.162;2022-09-09T00:39:02;1.20;;;0.80;;
43809;SDS011;29440;48.208;11.162;2022-09-09T00:44:20;1.40;;;0.60;;
43809;SDS011;29440;48.208;11.162;2022-09-09T00:46:56;1.83;;;0.70;;
43809;SDS011;29440;48.208;11.162;2022-09-09T00:49:57;2.17;;;0.75;;
43809;SDS011;29440;48.208;11.162;2022-09-09T00:55:07;1.35;;;0.80;;
43809;SDS011;29440;48.208;11.162;2022-09-09T00:57:40;1.35;;;0.80;;
43809;SDS011;29440;48.208;11.162;2022-09-09T01:17:10;1.65;;;0.77;;
43809;SDS011;29440;48.208;11.162;2022-09-09T01:28:00;1.50;;;0.75;;
43809;SDS011;29440;48.208;11.162;2022-09-09T01:30:30;1.85;;;0.60;;
43809;SDS011;29440;48.208;11.162;2022-09-09T01:32:57;9.43;;;1.15;;
43809;SDS011;29440;48.208;11.162;2022-09-09T01:38:09;2.30;;;0.60;;
43809;SDS011;29440;48.208;11.162;2022-09-09T01:40:35;1.30;;;0.80;;
43809;SDS011;29440;48.208;11.162;2022-09-09T01:43:01;1.40;;;0.70;;
43809;SDS011;29440;48.208;11.162;2022-09-09T01:45:28;3.38;;;0.90;;
43809;SDS011;29440;48.208;11.162;2022-09-09T01:47:54;2.72;;;0.70;;
43809;SDS011;29440;48.208;11.162;2022-09-09T01:50:20;1.63;;;0.70;;
43809;SDS011;29440;48.208;11.162;2022-09-09T01:52:46;3.75;;;0.80;;
43809;SDS011;29440;48.208;11.162;2022-09-09T01:55:14;0.90;;;0.68;;
43809;SDS011;29440;48.208;11.162;2022-09-09T01:57:52;2.90;;;0.60;;
43809;SDS011;29440;48.208;11.162;2022-09-09T02:00:29;4.28;;;0.70;;
43809;SDS011;29440;48.208;11.162;2022-09-09T02:03:03;1.38;;;0.88;;
43809;SDS011;29440;48.208;11.162;2022-09-09T02:05:53;0.82;;;0.70;;
43809;SDS011;29440;48.208;11.162;2022-09-09T02:11:14;1.38;;;0.80;;
43809;SDS011;29440;48.208;11.162;2022-09-09T02:16:17;4.47;;;0.80;;
43809;SDS011;29440;48.208;11.162;2022-09-09T02:18:55;2.63;;;0.93;;
43809;SDS011;29440;48.208;11.162;2022-09-09T02:21:27;1.95;;;0.88;;
43809;SDS011;29440;48.208;11.162;2022-09-09T02:23:55;1.35;;;0.75;;
43809;SDS011;29440;48.208;11.162;2022-09-09T02:26:24;1.73;;;0.70;;
43809;SDS011;29440;48.208;11.162;2022-09-09T02:28:52;2.45;;;0.73;;
43809;SDS011;29440;48.208;11.162;2022-09-09T02:31:20;2.95;;;1.10;;
43809;SDS011;29440;48.208;11.162;2022-09-09T02:33:51;3.03;;;0.70;;
43809;SDS011;29440;48.208;11.162;2022-09-09T02:36:20;3.55;;;0.98;;
43809;SDS011;29440;48.208;11.162;2022-09-09T02:38:48;1.52;;;0.90;;
43809;SDS011;29440;48.208;11.162;2022-09-09T02:41:23;1.00;;;0.70;;
43809;SDS011;29440;48.208;11.162;2022-09-09T02:43:53;1.95;;;0.80;;
43809;SDS011;29440;48.208;11.162;2022-09-09T02:49:18;3.28;;;0.80;;
43809;SDS011;29440;48.208;11.162;2022-09-09T02:52:07;2.00;;;0.80;;
43809;SDS011;29440;48.208;11.162;2022-09-09T02:54:37;2.45;;;0.90;;
43809;SDS011;29440;48.208;11.162;2022-09-09T02:59:32;2.70;;;0.98;;
43809;SDS011;29440;48.208;11.162;2022-09-09T03:01:59;1.40;;;0.80;;
43809;SDS011;29440;48.208;11.162;2022-09-09T03:04:24;3.30;;;1.00;;
43809;SDS011;29440;48.208;11.162;2022-09-09T03:06:50;1.42;;;0.80;;
43809;SDS011;29440;48.208;11.162;2022-09-09T03:09:16;1.27;;;1.10;;
43809;SDS011;29440;48.208;11.162;2022-09-09T03:11:41;1.10;;;0.60;;
43809;SDS011;29440;48.208;11.162;2022-09-09T03:14:07;2.33;;;0.90;;
43809;SDS011;29440;48.208;11.162;2022-09-09T03:16:33;2.30;;;0.80;;
43809;SDS011;29440;48.208;11.162;2022-09-09T03:18:59;2.85;;;1.00;;
43809;SDS011;29440;48.208;11.162;2022-09-09T03:21:25;2.33;;;0.70;;
43809;SDS011;29440;48.208;11.162;2022-09-09T03:23:51;3.50;;;0.75;;
43809;SDS011;29440;48.208;11.162;2022-09-09T03:26:16;1.70;;;0.82;;
43809;SDS011;29440;48.208;11.162;2022-09-09T03:28:42;1.27;;;0.80;;
43809;SDS011;29440;48.208;11.162;2022-09-09T03:31:08;2.10;;;1.02;;
43809;SDS011;29440;48.208;11.162;2022-09-09T03:33:36;1.77;;;0.90;;
43809;SDS011;29440;48.208;11.162;2022-09-09T03:36:03;2.00;;;1.00;;
43809;SDS011;29440;48.208;11.162;2022-09-09T03:38:29;2.53;;;0.75;;
43809;SDS011;29440;48.208;11.162;2022-09-09T03:40:56;4.65;;;0.82;;
43809;SDS011;29440;48.208;11.162;2022-09-09T03:43:25;3.75;;;0.70;;
43809;SDS011;29440;48.208;11.162;2022-09-09T03:45:52;1.55;;;0.85;;
43809;SDS011;29440;48.208;11.162;2022-09-09T03:48:18;2.17;;;0.80;;
43809;SDS011;29440;48.208;11.162;2022-09-09T03:50:48;1.63;;;0.80;;
43809;SDS011;29440;48.208;11.162;2022-09-09T03:53:15;1.75;;;0.88;;
43809;SDS011;29440;48.208;11.162;2022-09-09T03:55:45;1.27;;;0.80;;
43809;SDS011;29440;48.208;11.162;2022-09-09T03:58:12;2.40;;;0.80;;
43809;SDS011;29440;48.208;11.162;2022-09-09T04:00:39;1.98;;;0.90;;
43809;SDS011;29440;48.208;11.162;2022-09-09T04:03:08;1.35;;;0.80;;
43809;SDS011;29440;48.208;11.162;2022-09-09T04:05:34;1.70;;;1.10;;
43809;SDS011;29440;48.208;11.162;2022-09-09T04:08:04;3.70;;;0.90;;
43809;SDS011;29440;48.208;11.162;2022-09-09T04:10:30;4.55;;;0.75;;
43809;SDS011;29440;48.208;11.162;2022-09-09T04:12:56;3.55;;;0.93;;
43809;SDS011;29440;48.208;11.162;2022-09-09T04:15:22;5.28;;;0.90;;
43809;SDS011;29440;48.208;11.162;2022-09-09T04:17:47;3.58;;;1.00;;
43809;SDS011;29440;48.208;11.162;2022-09-09T04:20:13;1.42;;;0.73;;
43809;SDS011;29440;48.208;11.162;2022-09-09T04:22:38;1.95;;;0.70;;
43809;SDS011;29440;48.208;11.162;2022-09-09T04:25:05;1.85;;;1.10;;
43809;SDS011;29440;48.208;11.162;2022-09-09T04:27:31;2.42;;;1.15;;
43809;SDS011;29440;48.208;11.162;2022-09-09T04:29:57;1.75;;;1.00;;
43809;SDS011;29440;48.208;11.162;2022-09-09T04:32:22;3.10;;;1.15;;
43809;SDS011;29440;48.208;11.162;2022-09-09T04:34:51;2.67;;;1.10;;
43809;SDS011;29440;48.208;11.162;2022-09-09T04:37:17;2.33;;;0.80;;
43809;SDS011;29440;48.208;11.162;2022-09-09T04:39:42;1.42;;;0.90;;
43809;SDS011;29440;48.208;11.162;2022-09-09T04:42:08;2.50;;;1.48;;
43809;SDS011;29440;48.208;11.162;2022-09-09T04:44:33;5.07;;;1.63;;
43809;SDS011;29440;48.208;11.162;2022-09-09T04:46:59;3.20;;;0.80;;
43809;SDS011;29440;48.208;11.162;2022-09-09T04:49:24;2.03;;;0.85;;
43809;SDS011;29440;48.208;11.162;2022-09-09T04:51:50;2.67;;;1.08;;
43809;SDS011;29440;48.208;11.162;2022-09-09T04:54:16;1.85;;;1.05;;
43809;SDS011;29440;48.208;11.162;2022-09-09T04:56:42;2.47;;;0.90;;
43809;SDS011;29440;48.208;11.162;2022-09-09T04:59:08;1.33;;;0.90;;
43809;SDS011;29440;48.208;11.162;2022-09-09T05:01:34;2.08;;;1.00;;
43809;SDS011;29440;48.208;11.162;2022-09-09T05:04:01;1.98;;;1.10;;
43809;SDS011;29440;48.208;11.162;2022-09-09T05:06:27;3.83;;;1.00;;
43809;SDS011;29440;48.208;11.162;2022-09-09T05:08:54;3.35;;;0.80;;
43809;SDS011;29440;48.208;11.162;2022-09-09T05:13:49;4.15;;;0.93;;
43809;SDS011;29440;48.208;11.162;2022-09-09T05:16:16;1.88;;;1.00;;
43809;SDS011;29440;48.208;11.162;2022-09-09T05:18:42;5.00;;;1.23;;
43809;SDS011;29440;48.208;11.162;2022-09-09T05:21:09;1.75;;;1.15;;
43809;SDS011;29440;48.208;11.162;2022-09-09T05:23:35;3.97;;;1.08;;
43809;SDS011;29440;48.208;11.162;2022-09-09T05:26:00;4.22;;;1.00;;
43809;SDS011;29440;48.208;11.162;2022-09-09T05:28:27;1.38;;;0.90;;
43809;SDS011;29440;48.208;11.162;2022-09-09T05:30:57;2.58;;;1.20;;
43809;SDS011;29440;48.208;11.162;2022-09-09T05:33:25;5.13;;;1.58;;
43809;SDS011;29440;48.208;11.162;2022-09-09T05:36:02;4.70;;;1.25;;
43809;SDS011;29440;48.208;11.162;2022-09-09T05:38:33;4.22;;;0.95;;
43809;SDS011;29440;48.208;11.162;2022-09-09T05:40:59;2.63;;;1.08;;
43809;SDS011;29440;48.208;11.162;2022-09-09T05:43:25;3.42;;;0.90;;
43809;SDS011;29440;48.208;11.162;2022-09-09T05:46:05;2.20;;;0.80;;
43809;SDS011;29440;48.208;11.162;2022-09-09T05:48:34;3.20;;;1.13;;
43809;SDS011;29440;48.208;11.162;2022-09-09T05:51:02;1.92;;;0.90;;
43809;SDS011;29440;48.208;11.162;2022-09-09T05:53:28;1.42;;;0.80;;
43809;SDS011;29440;48.208;11.162;2022-09-09T05:56:03;3.58;;;1.08;;
43809;SDS011;29440;48.208;11.162;2022-09-09T05:58:37;2.25;;;0.77;;
43809;SDS011;29440;48.208;11.162;2022-09-09T06:01:07;3.10;;;0.90;;
43809;SDS011;29440;48.208;11.162;2022-09-09T06:03:41;2.65;;;0.77;;
43809;SDS011;29440;48.208;11.162;2022-09-09T06:06:09;3.30;;;0.88;;
43809;SDS011;29440;48.208;11.162;2022-09-09T06:08:37;1.73;;;0.80;;
43809;SDS011;29440;48.208;11.162;2022-09-09T06:11:05;1.52;;;0.70;;
43809;SDS011;29440;48.208;11.162;2022-09-09T06:13:33;2.35;;;0.80;;
43809;SDS011;29440;48.208;11.162;2022-09-09T06:15:59;1.17;;;0.68;;
43809;SDS011;29440;48.208;11.162;2022-09-09T06:18:24;0.90;;;0.60;;
43809;SDS011;29440;48.208;11.162;2022-09-09T06:20:58;4.47;;;1.42;;
43809;SDS011;29440;48.208;11.162;2022-09-09T06:23:24;2.88;;;0.80;;
43809;SDS011;29440;48.208;11.162;2022-09-09T06:25:50;4.63;;;1.10;;
43809;SDS011;29440;48.208;11.162;2022-09-09T06:28:16;3.13;;;1.08;;
43809;SDS011;29440;48.208;11.162;2022-09-09T06:30:43;2.33;;;1.38;;
43809;SDS011;29440;48.208;11.162;2022-09-09T06:33:09;2.28;;;0.80;;
43809;SDS011;29440;48.208;11.162;2022-09-09T06:35:35;2.08;;;0.70;;
43809;SDS011;29440;48.208;11.162;2022-09-09T06:38:00;1.10;;;0.60;;
43809;SDS011;29440;48.208;11.162;2022-09-09T06:40:26;1.30;;;0.60;;
43809;SDS011;29440;48.208;11.162;2022-09-09T06:42:51;1.33;;;0.60;;
43809;SDS011;29440;48.208;11.162;2022-09-09T06:45:17;2.20;;;0.60;;
43809;SDS011;29440;48.208;11.162;2022-09-09T06:47:43;2.03;;;0.60;;
43809;SDS011;29440;48.208;11.162;2022-09-09T06:50:09;1.33;;;0.60;;
43809;SDS011;29440;48.208;11.162;2022-09-09T06:52:36;1.42;;;0.60;;
43809;SDS011;29440;48.208;11.162;2022-09-09T06:55:01;3.60;;;0.75;;
43809;SDS011;29440;48.208;11.162;2022-09-09T06:57:27;0.90;;;0.60;;
43809;SDS011;29440;48.208;11.162;2022-09-09T06:59:53;3.03;;;0.70;;
43809;SDS011;29440;48.208;11.162;2022-09-09T07:02:18;1.20;;;0.70;;
43809;SDS011;29440;48.208;11.162;2022-09-09T07:04:44;1.77;;;0.75;;
43809;SDS011;29440;48.208;11.162;2022-09-09T07:07:10;1.45;;;0.70;;
43809;SDS011;29440;48.208;11.162;2022-09-09T07:09:38;2.78;;;0.80;;
43809;SDS011;29440;48.208;11.162;2022-09-09T07:12:04;2.75;;;0.90;;
43809;SDS011;29440;48.208;11.162;2022-09-09T07:14:31;2.65;;;0.77;;
43809;SDS011;29440;48.208;11.162;2022-09-09T07:16:57;3.78;;;0.80;;
43809;SDS011;29440;48.208;11.162;2022-09-09T07:19:23;1.85;;;0.90;;
43809;SDS011;29440;48.208;11.162;2022-09-09T07:21:48;2.85;;;1.05;;
43809;SDS011;29440;48.208;11.162;2022-09-09T07:24:14;3.00;;;0.82;;
43809;SDS011;29440;48.208;11.162;2022-09-09T07:26:40;3.33;;;1.08;;
43809;SDS011;29440;48.208;11.162;2022-09-09T07:29:06;4.03;;;0.90;;
43809;SDS011;29440;48.208;11.162;2022-09-09T07:31:34;2.60;;;0.95;;
43809;SDS011;29440;48.208;11.162;2022-09-09T07:34:02;5.10;;;1.00;;
43809;SDS011;29440;48.208;11.162;2022-09-09T07:36:31;2.70;;;0.80;;
43809;SDS011;29440;48.208;11.162;2022-09-09T07:38:59;1.77;;;0.90;;
43809;SDS011;29440;48.208;11.162;2022-09-09T07:41:28;2.60;;;0.93;;
43809;SDS011;29440;48.208;11.162;2022-09-09T07:43:57;3.38;;;0.88;;
43809;SDS011;29440;48.208;11.162;2022-09-09T07:46:24;2.13;;;1.30;;
43809;SDS011;29440;48.208;11.162;2022-09-09T07:48:55;2.22;;;1.02;;
43809;SDS011;29440;48.208;11.162;2022-09-09T07:51:28;3.67;;;0.90;;
43809;SDS011;29440;48.208;11.162;2022-09-09T07:53:57;2.78;;;0.95;;
43809;SDS011;29440;48.208;11.162;2022-09-09T07:56:25;3.20;;;1.20;;
43809;SDS011;29440;48.208;11.162;2022-09-09T07:58:52;1.35;;;0.75;;
43809;SDS011;29440;48.208;11.162;2022-09-09T08:01:23;1.73;;;0.90;;
43809;SDS011;29440;48.208;11.162;2022-09-09T08:03:53;1.45;;;0.98;;
43809;SDS011;29440;48.208;11.162;2022-09-09T08:06:30;2.50;;;1.25;;
43809;SDS011;29440;48.208;11.162;2022-09-09T08:08:58;2.88;;;1.33;;
43809;SDS011;29440;48.208;11.162;2022-09-09T08:11:25;3.92;;;1.10;;
43809;SDS011;29440;48.208;11.162;2022-09-09T08:13:53;3.97;;;1.10;;
43809;SDS011;29440;48.208;11.162;2022-09-09T08:16:20;1.90;;;1.42;;
43809;SDS011;29440;48.208;11.162;2022-09-09T08:18:48;4.47;;;1.20;;
43809;SDS011;29440;48.208;11.162;2022-09-09T08:21:18;4.00;;;1.00;;
43809;SDS011;29440;48.208;11.162;2022-09-09T08:23:49;2.90;;;1.08;;
43809;SDS011;29440;48.208;11.162;2022-09-09T08:26:18;2.28;;;0.93;;
43809;SDS011;29440;48.208;11.162;2022-09-09T08:28:47;2.30;;;0.80;;
43809;SDS011;29440;48.208;11.162;2022-09-09T08:31:16;1.58;;;0.68;;
43809;SDS011;29440;48.208;11.162;2022-09-09T08:33:43;4.72;;;0.75;;
43809;SDS011;29440;48.208;11.162;2022-09-09T08:36:16;2.30;;;0.70;;
43809;SDS011;29440;48.208;11.162;2022-09-09T08:38:46;4.78;;;0.80;;
43809;SDS011;29440;48.208;11.162;2022-09-09T08:44:02;1.77;;;0.70;;
43809;SDS011;29440;48.208;11.162;2022-09-09T08:49:46;5.32;;;0.95;;
43809;SDS011;29440;48.208;11.162;2022-09-09T08:52:49;1.85;;;0.60;;
43809;SDS011;29440;48.208;11.162;2022-09-09T08:58:09;3.63;;;0.70;;
43809;SDS011;29440;48.208;11.162;2022-09-09T09:08:47;4.40;;;0.70;;
43809;SDS011;29440;48.208;11.162;2022-09-09T09:11:35;2.47;;;0.60;;
43809;SDS011;29440;48.208;11.162;2022-09-09T09:14:18;7.70;;;1.48;;
43809;SDS011;29440;48.208;11.162;2022-09-09T09:16:53;2.88;;;0.57;;
43809;SDS011;29440;48.208;11.162;2022-09-09T09:19:42;0.93;;;0.50;;
43809;SDS011;29440;48.208;11.162;2022-09-09T09:22:15;1.75;;;0.55;;
43809;SDS011;29440;48.208;11.162;2022-09-09T09:27:35;5.22;;;0.80;;
43809;SDS011;29440;48.208;11.162;2022-09-09T09:30:14;2.00;;;0.60;;
43809;SDS011;29440;48.208;11.162;2022-09-09T09:32:52;5.95;;;0.80;;
43809;SDS011;29440;48.208;11.162;2022-09-09T09:35:23;2.10;;;0.85;;
43809;SDS011;29440;48.208;11.162;2022-09-09T09:37:48;3.88;;;0.60;;
43809;SDS011;29440;48.208;11.162;2022-09-09T09:40:16;2.88;;;0.90;;
43809;SDS011;29440;48.208;11.162;2022-09-09T09:42:48;1.27;;;0.77;;
43809;SDS011;29440;48.208;11.162;2022-09-09T09:45:25;3.08;;;1.02;;
43809;SDS011;29440;48.208;11.162;2022-09-09T09:50:29;3.13;;;0.80;;
43809;SDS011;29440;48.208;11.162;2022-09-09T09:53:00;1.48;;;0.70;;
43809;SDS011;29440;48.208;11.162;2022-09-09T09:55:30;3.13;;;0.75;;
43809;SDS011;29440;48.208;11.162;2022-09-09T09:58:02;2.75;;;0.75;;
43809;SDS011;29440;48.208;11.162;2022-09-09T10:00:29;1.60;;;0.70;;
43809;SDS011;29440;48.208;11.162;2022-09-09T10:02:55;3.22;;;0.88;;
43809;SDS011;29440;48.208;11.162;2022-09-09T10:05:25;3.90;;;0.75;;
43809;SDS011;29440;48.208;11.162;2022-09-09T10:11:23;4.60;;;0.85;;
43809;SDS011;29440;48.208;11.162;2022-09-09T10:16:52;1.95;;;0.70;;
43809;SDS011;29440;48.208;11.162;2022-09-09T10:19:32;2.80;;;0.50;;
43809;SDS011;29440;48.208;11.162;2022-09-09T10:24:58;1.67;;;0.50;;
43809;SDS011;29440;48.208;11.162;2022-09-09T10:33:17;2.05;;;0.50;;
43809;SDS011;29440;48.208;11.162;2022-09-09T10:38:39;1.85;;;0.40;;
43809;SDS011;29440;48.208;11.162;2022-09-09T10:41:16;0.63;;;0.20;;
43809;SDS011;29440;48.208;11.162;2022-09-09T10:49:20;6.43;;;0.60;;
43809;SDS011;29440;48.208;11.162;2022-09-09T10:52:02;3.65;;;0.38;;
43809;SDS011;29440;48.208;11.162;2022-09-09T10:57:25;1.92;;;0.40;;
43809;SDS011;29440;48.208;11.162;2022-09-09T11:00:01;2.03;;;0.50;;
43809;SDS011;29440;48.208;11.162;2022-09-09T11:02:41;1.55;;;0.30;;
43809;SDS011;29440;48.208;11.162;2022-09-09T11:05:21;3.33;;;0.50;;
43809;SDS011;29440;48.208;11.162;2022-09-09T11:08:12;2.42;;;0.30;;
43809;SDS011;29440;48.208;11.162;2022-09-09T11:19:17;0.57;;;0.40;;
43809;SDS011;29440;48.208;11.162;2022-09-09T11:21:50;1.75;;;0.47;;
43809;SDS011;29440;48.208;11.162;2022-09-09T11:27:16;1.95;;;0.40;;
43809;SDS011;29440;48.208;11.162;2022-09-09T11:30:11;1.80;;;0.65;;
43809;SDS011;29440;48.208;11.162;2022-09-09T11:33:15;3.22;;;0.40;;
43809;SDS011;29440;48.208;11.162;2022-09-09T11:41:42;6.53;;;0.38;;
43809;SDS011;29440;48.208;11.162;2022-09-09T11:44:11;1.25;;;0.40;;
43809;SDS011;29440;48.208;11.162;2022-09-09T11:46:42;2.85;;;0.20;;
43809;SDS011;29440;48.208;11.162;2022-09-09T11:51:56;3.75;;;0.40;;
43809;SDS011;29440;48.208;11.162;2022-09-09T11:54:32;1.23;;;0.20;;
43809;SDS011;29440;48.208;11.162;2022-09-09T11:57:00;0.90;;;0.32;;
43809;SDS011;29440;48.208;11.162;2022-09-09T11:59:30;2.00;;;0.38;;
43809;SDS011;29440;48.208;11.162;2022-09-09T12:02:09;3.78;;;0.30;;
43809;SDS011;29440;48.208;11.162;2022-09-09T12:04:46;4.38;;;0.38;;
43809;SDS011;29440;48.208;11.162;2022-09-09T12:10:19;3.92;;;0.30;;
43809;SDS011;29440;48.208;11.162;2022-09-09T12:15:57;2.70;;;0.32;;
43809;SDS011;29440;48.208;11.162;2022-09-09T12:18:25;3.42;;;0.40;;
43809;SDS011;29440;48.208;11.162;2022-09-09T12:21:21;3.25;;;0.40;;
43809;SDS011;29440;48.208;11.162;2022-09-09T12:24:10;4.28;;;0.43;;
43809;SDS011;29440;48.208;11.162;2022-09-09T12:26:47;2.53;;;0.50;;
43809;SDS011;29440;48.208;11.162;2022-09-09T12:32:19;3.75;;;0.45;;
43809;SDS011;29440;48.208;11.162;2022-09-09T12:34:59;2.03;;;0.30;;
43809;SDS011;29440;48.208;11.162;2022-09-09T12:42:47;2.53;;;0.70;;
43809;SDS011;29440;48.208;11.162;2022-09-09T12:45:17;3.53;;;0.40;;
43809;SDS011;29440;48.208;11.162;2022-09-09T12:47:46;2.60;;;0.30;;
43809;SDS011;29440;48.208;11.162;2022-09-09T12:52:55;4.28;;;0.50;;
43809;SDS011;29440;48.208;11.162;2022-09-09T12:55:24;3.17;;;0.50;;
43809;SDS011;29440;48.208;11.162;2022-09-09T12:57:56;2.58;;;0.43;;
43809;SDS011;29440;48.208;11.162;2022-09-09T13:00:24;4.13;;;0.40;;
43809;SDS011;29440;48.208;11.162;2022-09-09T13:02:52;1.67;;;0.45;;
43809;SDS011;29440;48.208;11.162;2022-09-09T13:05:21;4.03;;;0.40;;
43809;SDS011;29440;48.208;11.162;2022-09-09T13:07:48;3.28;;;0.50;;
43809;SDS011;29440;48.208;11.162;2022-09-09T13:10:15;1.55;;;0.30;;
43809;SDS011;29440;48.208;11.162;2022-09-09T13:12:48;1.73;;;0.30;;
43809;SDS011;29440;48.208;11.162;2022-09-09T13:15:22;5.07;;;0.40;;
43809;SDS011;29440;48.208;11.162;2022-09-09T13:17:56;1.85;;;0.40;;
43809;SDS011;29440;48.208;11.162;2022-09-09T13:20:25;2.30;;;0.47;;
43809;SDS011;29440;48.208;11.162;2022-09-09T13:22:52;2.15;;;0.30;;
43809;SDS011;29440;48.208;11.162;2022-09-09T13:25:22;2.10;;;0.40;;
43809;SDS011;29440;48.208;11.162;2022-09-09T13:28:01;4.05;;;0.50;;
43809;SDS011;29440;48.208;11.162;2022-09-09T13:30:30;2.70;;;0.30;;
43809;SDS011;29440;48.208;11.162;2022-09-09T13:35:58;4.75;;;0.40;;
43809;SDS011;29440;48.208;11.162;2022-09-09T13:38:28;2.58;;;0.30;;
43809;SDS011;29440;48.208;11.162;2022-09-09T13:43:27;3.70;;;0.30;;
43809;SDS011;29440;48.208;11.162;2022-09-09T13:45:58;4.18;;;0.47;;
43809;SDS011;29440;48.208;11.162;2022-09-09T13:48:26;4.18;;;0.40;;
43809;SDS011;29440;48.208;11.162;2022-09-09T13:50:56;3.40;;;0.30;;
43809;SDS011;29440;48.208;11.162;2022-09-09T13:53:28;4.60;;;0.40;;
43809;SDS011;29440;48.208;11.162;2022-09-09T13:55:53;4.35;;;0.40;;
43809;SDS011;29440;48.208;11.162;2022-09-09T13:58:19;1.83;;;0.30;;
43809;SDS011;29440;48.208;11.162;2022-09-09T14:00:46;0.70;;;0.20;;
43809;SDS011;29440;48.208;11.162;2022-09-09T14:03:12;1.48;;;0.40;;
43809;SDS011;29440;48.208;11.162;2022-09-09T14:05:38;1.08;;;0.30;;
43809;SDS011;29440;48.208;11.162;2022-09-09T14:08:05;1.15;;;0.30;;
43809;SDS011;29440;48.208;11.162;2022-09-09T14:10:31;2.25;;;0.40;;
43809;SDS011;29440;48.208;11.162;2022-09-09T14:13:29;3.55;;;0.30;;
43809;SDS011;29440;48.208;11.162;2022-09-09T14:15:56;2.65;;;0.40;;
43809;SDS011;29440;48.208;11.162;2022-09-09T14:18:21;1.75;;;0.50;;
43809;SDS011;29440;48.208;11.162;2022-09-09T14:20:48;5.60;;;0.40;;
43809;SDS011;29440;48.208;11.162;2022-09-09T14:23:15;4.32;;;0.32;;
43809;SDS011;29440;48.208;11.162;2022-09-09T14:25:43;0.82;;;0.20;;
43809;SDS011;29440;48.208;11.162;2022-09-09T14:28:09;2.17;;;0.30;;
43809;SDS011;29440;48.208;11.162;2022-09-09T14:30:37;2.55;;;0.32;;
43809;SDS011;29440;48.208;11.162;2022-09-09T14:33:05;1.48;;;0.30;;
43809;SDS011;29440;48.208;11.162;2022-09-09T14:35:32;2.83;;;0.40;;
43809;SDS011;29440;48.208;11.162;2022-09-09T14:37:58;0.93;;;0.30;;
43809;SDS011;29440;48.208;11.162;2022-09-09T14:40:26;3.58;;;0.30;;
43809;SDS011;29440;48.208;11.162;2022-09-09T14:42:52;1.75;;;0.30;;
43809;SDS011;29440;48.208;11.162;2022-09-09T14:45:21;1.55;;;0.20;;
43809;SDS011;29440;48.208;11.162;2022-09-09T14:47:49;1.80;;;0.10;;
43809;SDS011;29440;48.208;11.162;2022-09-09T14:50:16;1.25;;;0.28;;
43809;SDS011;29440;48.208;11.162;2022-09-09T14:52:42;2.05;;;0.50;;
43809;SDS011;29440;48.208;11.162;2022-09-09T14:55:08;2.15;;;0.30;;
43809;SDS011;29440;48.208;11.162;2022-09-09T14:57:34;1.88;;;0.28;;
43809;SDS011;29440;48.208;11.162;2022-09-09T15:00:01;1.80;;;0.30;;
43809;SDS011;29440;48.208;11.162;2022-09-09T15:02:28;3.25;;;0.30;;
43809;SDS011;29440;48.208;11.162;2022-09-09T15:04:55;2.00;;;0.40;;
43809;SDS011;29440;48.208;11.162;2022-09-09T15:07:22;1.65;;;0.30;;
43809;SDS011;29440;48.208;11.162;2022-09-09T15:09:49;3.00;;;0.38;;
43809;SDS011;29440;48.208;11.162;2022-09-09T15:12:15;0.60;;;0.30;;
43809;SDS011;29440;48.208;11.162;2022-09-09T15:14:44;12.70;;;0.60;;
43809;SDS011;29440;48.208;11.162;2022-09-09T15:17:11;2.80;;;0.30;;
43809;SDS011;29440;48.208;11.162;2022-09-09T15:19:37;4.00;;;0.30;;
43809;SDS011;29440;48.208;11.162;2022-09-09T15:22:04;1.08;;;0.40;;
43809;SDS011;29440;48.208;11.162;2022-09-09T15:24:33;2.35;;;0.30;;
43809;SDS011;29440;48.208;11.162;2022-09-09T15:26:59;1.02;;;0.30;;
43809;SDS011;29440;48.208;11.162;2022-09-09T15:29:27;1.25;;;0.30;;
43809;SDS011;29440;48.208;11.162;2022-09-09T15:31:54;1.63;;;0.28;;
43809;SDS011;29440;48.208;11.162;2022-09-09T15:34:22;1.80;;;0.30;;
43809;SDS011;29440;48.208;11.162;2022-09-09T15:36:49;4.13;;;0.30;;
43809;SDS011;29440;48.208;11.162;2022-09-09T15:39:16;1.67;;;0.28;;
43809;SDS011;29440;48.208;11.162;2022-09-09T15:41:46;2.75;;;0.30;;
43809;SDS011;29440;48.208;11.162;2022-09-09T15:44:13;1.17;;;0.25;;
43809;SDS011;29440;48.208;11.162;2022-09-09T15:49:20;1.65;;;0.30;;
43809;SDS011;29440;48.208;11.162;2022-09-09T15:51:51;3.83;;;0.30;;
43809;SDS011;29440;48.208;11.162;2022-09-09T15:54:21;2.97;;;0.38;;
43809;SDS011;29440;48.208;11.162;2022-09-09T15:56:51;0.90;;;0.28;;
43809;SDS011;29440;48.208;11.162;2022-09-09T15:59:22;3.35;;;0.22;;
43809;SDS011;29440;48.208;11.162;2022-09-09T16:01:55;2.45;;;0.20;;
43809;SDS011;29440;48.208;11.162;2022-09-09T16:04:24;1.23;;;0.20;;
43809;SDS011;29440;48.208;11.162;2022-09-09T16:07:04;1.23;;;0.20;;
43809;SDS011;29440;48.208;11.162;2022-09-09T16:09:30;1.88;;;0.30;;
43809;SDS011;29440;48.208;11.162;2022-09-09T16:11:59;3.20;;;0.30;;
43809;SDS011;29440;48.208;11.162;2022-09-09T16:14:26;0.20;;;0.10;;
43809;SDS011;29440;48.208;11.162;2022-09-09T16:16:51;1.95;;;0.20;;
43809;SDS011;29440;48.208;11.162;2022-09-09T16:19:17;1.95;;;0.30;;
43809;SDS011;29440;48.208;11.162;2022-09-09T16:21:44;2.55;;;0.30;;
43809;SDS011;29440;48.208;11.162;2022-09-09T16:24:14;2.67;;;0.30;;
43809;SDS011;29440;48.208;11.162;2022-09-09T16:26:43;3.03;;;0.55;;
43809;SDS011;29440;48.208;11.162;2022-09-09T16:29:11;1.05;;;0.30;;
43809;SDS011;29440;48.208;11.162;2022-09-09T16:31:38;2.10;;;1.10;;
43809;SDS011;29440;48.208;11.162;2022-09-09T16:34:05;2.10;;;0.30;;
43809;SDS011;29440;48.208;11.162;2022-09-09T16:36:32;3.40;;;0.30;;
43809;SDS011;29440;48.208;11.162;2022-09-09T16:39:00;1.90;;;0.30;;
43809;SDS011;29440;48.208;11.162;2022-09-09T16:41:29;6.88;;;0.40;;
43809;SDS011;29440;48.208;11.162;2022-09-09T16:43:58;0.75;;;0.30;;
43809;SDS011;29440;48.208;11.162;2022-09-09T16:46:28;2.60;;;0.25;;
43809;SDS011;29440;48.208;11.162;2022-09-09T16:48:58;0.85;;;0.22;;
43809;SDS011;29440;48.208;11.162;2022-09-09T16:51:30;1.27;;;0.30;;
43809;SDS011;29440;48.208;11.162;2022-09-09T16:53:57;5.65;;;0.50;;
43809;SDS011;29440;48.208;11.162;2022-09-09T16:56:26;1.65;;;0.40;;
43809;SDS011;29440;48.208;11.162;2022-09-09T16:58:54;2.95;;;0.50;;
43809;SDS011;29440;48.208;11.162;2022-09-09T17:01:23;1.55;;;0.30;;
43809;SDS011;29440;48.208;11.162;2022-09-09T17:03:56;2.17;;;0.30;;
43809;SDS011;29440;48.208;11.162;2022-09-09T17:06:23;1.05;;;0.40;;
43809;SDS011;29440;48.208;11.162;2022-09-09T17:08:57;1.20;;;0.30;;
43809;SDS011;29440;48.208;11.162;2022-09-09T17:11:25;1.85;;;0.50;;
43809;SDS011;29440;48.208;11.162;2022-09-09T17:13:51;0.57;;;0.30;;
43809;SDS011;29440;48.208;11.162;2022-09-09T17:16:18;1.00;;;0.40;;
43809;SDS011;29440;48.208;11.162;2022-09-09T17:18:51;4.10;;;0.50;;
43809;SDS011;29440;48.208;11.162;2022-09-09T17:21:19;1.05;;;0.32;;
43809;SDS011;29440;48.208;11.162;2022-09-09T17:23:48;1.35;;;0.30;;
43809;SDS011;29440;48.208;11.162;2022-09-09T17:26:15;2.47;;;0.50;;